createdAt,value
2018-01-25T00:01:41.876Z,100347.88
2018-01-25T00:04:10.882Z,100357.24
2018-01-25T00:06:39.341Z,100343.18
2018-01-25T00:09:07.904Z,100345.55
2018-01-25T00:11:36.317Z,100343.36
2018-01-25T00:14:04.757Z,100344.14
2018-01-25T00:16:33.492Z,100348.34
2018-01-25T00:19:01.980Z,100338.50
2018-01-25T00:21:30.436Z,100347.65
2018-01-25T00:23:58.901Z,100348.18
2018-01-25T00:26:27.341Z,100335.41
2018-01-25T00:28:55.775Z,100329.99
2018-01-25T00:31:24.235Z,100319.45
2018-01-25T00:33:52.714Z,100328.98
2018-01-25T00:36:21.274Z,100322.59
2018-01-25T00:38:49.783Z,100339.77
2018-01-25T00:41:18.319Z,100346.42
2018-01-25T00:43:46.801Z,100347.14
2018-01-25T00:46:15.432Z,100356.66
2018-01-25T00:48:44.367Z,100360.02
2018-01-25T00:51:13.234Z,100375.98
2018-01-25T00:53:42.414Z,100380.23
2018-01-25T00:56:10.890Z,100385.00
2018-01-25T00:58:39.322Z,100382.78
2018-01-25T01:01:08.666Z,100381.68
2018-01-25T01:03:37.097Z,100378.85
2018-01-25T01:06:05.520Z,100385.29
2018-01-25T01:08:33.982Z,100393.83
2018-01-25T01:11:03.409Z,100386.66
2018-01-25T01:13:31.844Z,100383.53
2018-01-25T01:16:00.303Z,100385.77
2018-01-25T01:18:28.742Z,100399.52
2018-01-25T01:20:57.200Z,100407.32
2018-01-25T01:23:25.703Z,100396.54
2018-01-25T01:25:54.176Z,100393.81
2018-01-25T01:28:22.679Z,100402.20
2018-01-25T01:30:51.150Z,100412.82
2018-01-25T01:33:19.664Z,100402.63
2018-01-25T01:35:48.157Z,100404.69
2018-01-25T01:38:17.283Z,100418.56
2018-01-25T01:40:45.939Z,100415.81
2018-01-25T01:43:14.397Z,100407.00
2018-01-25T01:45:43.148Z,100401.36
2018-01-25T01:48:11.834Z,100393.98
2018-01-25T01:50:40.471Z,100407.00
2018-01-25T01:53:09.108Z,100408.92
2018-01-25T01:55:37.565Z,100415.96
2018-01-25T01:58:05.988Z,100410.25
2018-01-25T02:00:34.454Z,100402.44
2018-01-25T02:03:02.927Z,100403.51
2018-01-25T02:05:31.349Z,100408.92
2018-01-25T02:07:59.978Z,100425.34
2018-01-25T02:10:28.402Z,100427.95
2018-01-25T02:12:56.895Z,100442.36
2018-01-25T02:15:25.557Z,100434.97
2018-01-25T02:17:54.041Z,100421.36
2018-01-25T02:20:22.500Z,100422.94
2018-01-25T02:22:51.306Z,100421.95
2018-01-25T02:25:19.888Z,100422.21
2018-01-25T02:27:48.576Z,100414.52
2018-01-25T02:30:17.499Z,100422.33
2018-01-25T02:32:47.516Z,100415.20
2018-01-25T02:35:15.972Z,100421.25
2018-01-25T02:37:44.446Z,100416.91
2018-01-25T02:40:13.029Z,100432.28
2018-01-25T02:42:41.508Z,100426.44
2018-01-25T02:45:10.103Z,100409.20
2018-01-25T02:47:38.543Z,100415.12
2018-01-25T02:50:06.969Z,100426.28
2018-01-25T02:52:35.607Z,100416.97
2018-01-25T02:55:04.019Z,100436.59
2018-01-25T02:57:32.429Z,100431.52
2018-01-25T03:00:00.876Z,100426.28
2018-01-25T03:02:29.302Z,100422.59
2018-01-25T03:04:57.702Z,100430.31
2018-01-25T03:07:26.475Z,100435.95
2018-01-25T03:09:54.874Z,100439.05
2018-01-25T03:12:23.558Z,100454.19
2018-01-25T03:14:51.993Z,100457.48
2018-01-25T03:17:20.408Z,100463.17
2018-01-25T03:19:49.124Z,100459.81
2018-01-25T03:22:17.588Z,100464.92
2018-01-25T03:24:46.044Z,100456.58
2018-01-25T03:27:14.465Z,100459.19
2018-01-25T03:29:43.434Z,100458.55
2018-01-25T03:32:12.148Z,100466.25
2018-01-25T03:34:40.645Z,100467.06
2018-01-25T03:37:09.416Z,100467.69
2018-01-25T03:39:37.841Z,100460.78
2018-01-25T03:42:06.259Z,100469.06
2018-01-25T03:44:34.685Z,100474.76
2018-01-25T03:47:03.297Z,100484.28
2018-01-25T03:49:31.702Z,100487.15
2018-01-25T03:52:00.140Z,100486.67
2018-01-25T03:54:28.547Z,100487.58
2018-01-25T03:56:56.952Z,100484.28
2018-01-25T03:59:25.480Z,100492.84
2018-01-25T04:01:53.879Z,100488.70
2018-01-25T04:04:22.418Z,100485.87
2018-01-25T04:06:50.943Z,100494.22
2018-01-25T04:09:19.544Z,100490.83
2018-01-25T04:11:48.044Z,100497.33
2018-01-25T04:14:16.515Z,100489.08
2018-01-25T04:16:45.097Z,100489.98
2018-01-25T04:19:13.528Z,100494.49
2018-01-25T04:21:42.108Z,100500.44
2018-01-25T04:24:10.677Z,100490.08
2018-01-25T04:26:39.089Z,100493.27
2018-01-25T04:29:07.530Z,100504.00
2018-01-25T04:31:35.920Z,100517.80
2018-01-25T04:34:04.320Z,100514.56
2018-01-25T04:36:32.982Z,100522.38
2018-01-25T04:39:02.357Z,100518.82
2018-01-25T04:41:30.760Z,100515.36
2018-01-25T04:43:59.222Z,100521.89
2018-01-25T04:46:27.645Z,100520.25
2018-01-25T04:48:56.131Z,100520.78
2018-01-25T04:51:24.581Z,100521.84
2018-01-25T04:53:52.985Z,100525.77
2018-01-25T04:56:21.393Z,100514.35
2018-01-25T04:58:50.140Z,100518.97
2018-01-25T05:01:18.568Z,100513.08
2018-01-25T05:03:46.997Z,100511.67
2018-01-25T05:06:15.564Z,100512.27
2018-01-25T05:08:44.418Z,100527.16
2018-01-25T05:11:13.205Z,100519.88
2018-01-25T05:13:42.096Z,100524.72
2018-01-25T05:16:10.574Z,100527.70
2018-01-25T05:18:39.017Z,100541.02
2018-01-25T05:21:07.494Z,100533.65
2018-01-25T05:23:35.927Z,100540.34
2018-01-25T05:26:04.463Z,100537.06
2018-01-25T05:28:33.119Z,100547.80
2018-01-25T05:31:01.537Z,100550.71
2018-01-25T05:33:29.980Z,100546.89
2018-01-25T05:35:58.453Z,100548.07
2018-01-25T05:38:26.888Z,100539.97
2018-01-25T05:40:55.294Z,100543.50
2018-01-25T05:43:24.003Z,100543.44
2018-01-25T05:45:52.417Z,100547.95
2018-01-25T05:48:20.899Z,100552.42
2018-01-25T05:50:49.337Z,100544.87
2018-01-25T05:53:17.792Z,100551.41
2018-01-25T05:55:46.481Z,100559.34
2018-01-25T05:58:14.988Z,100553.02
2018-01-25T06:00:43.417Z,100565.02
2018-01-25T06:03:11.844Z,100571.24
2018-01-25T06:05:40.411Z,100566.91
2018-01-25T06:08:08.733Z,100571.38
2018-01-25T06:10:37.133Z,100573.61
2018-01-25T06:13:05.818Z,100572.77
2018-01-25T06:15:34.237Z,100573.19
2018-01-25T06:18:02.673Z,100584.06
2018-01-25T06:20:31.114Z,100577.84
2018-01-25T06:22:59.552Z,100579.87
2018-01-25T06:25:27.953Z,100593.28
2018-01-25T06:27:56.645Z,100595.31
2018-01-25T06:30:25.119Z,100594.04
2018-01-25T06:32:53.521Z,100590.85
2018-01-25T06:35:21.977Z,100594.99
2018-01-25T06:37:50.505Z,100594.67
2018-01-25T06:40:18.979Z,100604.41
2018-01-25T06:42:47.446Z,100615.94
2018-01-25T06:45:15.889Z,100608.92
2018-01-25T06:47:44.395Z,100608.31
2018-01-25T06:50:12.966Z,100610.47
2018-01-25T06:52:41.594Z,100611.89
2018-01-25T06:55:10.069Z,100609.14
2018-01-25T06:57:39.025Z,100612.52
2018-01-25T07:00:07.461Z,100613.94
2018-01-25T07:02:35.886Z,100621.91
2018-01-25T07:05:04.669Z,100623.11
2018-01-25T07:07:33.109Z,100629.19
2018-01-25T07:10:01.574Z,100633.60
2018-01-25T07:12:30.157Z,100632.28
2018-01-25T07:14:58.595Z,100631.65
2018-01-25T07:17:27.060Z,100642.19
2018-01-25T07:19:55.618Z,100646.70
2018-01-25T07:22:24.070Z,100642.13
2018-01-25T07:24:52.515Z,100645.86
2018-01-25T07:27:21.141Z,100652.59
2018-01-25T07:29:49.728Z,100659.07
2018-01-25T07:32:18.190Z,100656.36
2018-01-25T07:34:47.073Z,100659.07
2018-01-25T07:37:15.501Z,100657.97
2018-01-25T07:39:44.215Z,100667.81
2018-01-25T07:42:13.071Z,100669.23
2018-01-25T07:44:41.539Z,100671.88
2018-01-25T07:47:09.971Z,100675.91
2018-01-25T07:49:38.757Z,100671.03
2018-01-25T07:52:07.169Z,100673.44
2018-01-25T07:54:35.849Z,100672.46
2018-01-25T07:57:04.909Z,100675.50
2018-01-25T07:59:33.335Z,100669.98
2018-01-25T08:02:01.831Z,100671.27
2018-01-25T08:04:30.285Z,100673.14
2018-01-25T08:06:58.718Z,100677.91
2018-01-25T08:09:28.881Z,100675.43
2018-01-25T08:11:57.334Z,100689.05
2018-01-25T08:14:25.896Z,100682.52
2018-01-25T08:16:54.353Z,100686.19
2018-01-25T08:19:22.816Z,100693.92
2018-01-25T08:21:51.247Z,100693.92
2018-01-25T08:24:19.691Z,100697.21
2018-01-25T08:26:48.374Z,100695.73
2018-01-25T08:29:16.855Z,100704.33
2018-01-25T08:31:45.678Z,100712.55
2018-01-25T08:34:14.433Z,100708.17
2018-01-25T08:36:42.982Z,100700.12
2018-01-25T08:39:11.542Z,100702.95
2018-01-25T08:41:40.208Z,100701.92
2018-01-25T08:44:08.619Z,100708.53
2018-01-25T08:46:37.093Z,100716.70
2018-01-25T08:49:05.621Z,100721.73
2018-01-25T08:51:34.050Z,100722.88
2018-01-25T08:54:02.472Z,100712.66
2018-01-25T08:56:31.206Z,100709.09
2018-01-25T08:58:59.605Z,100704.75
2018-01-25T09:01:28.020Z,100715.96
2018-01-25T09:03:56.460Z,100719.95
2018-01-25T09:06:25.376Z,100723.42
2018-01-25T09:08:53.817Z,100720.54
2018-01-25T09:11:22.289Z,100722.47
2018-01-25T09:13:50.934Z,100720.72
2018-01-25T09:16:19.379Z,100718.05
2018-01-25T09:18:48.146Z,100725.03
2018-01-25T09:21:16.605Z,100730.09
2018-01-25T09:23:45.210Z,100733.95
2018-01-25T09:26:13.750Z,100724.25
2018-01-25T09:28:42.267Z,100721.42
2018-01-25T09:31:11.678Z,100730.59
2018-01-25T09:33:40.173Z,100727.97
2018-01-25T09:36:08.628Z,100735.55
2018-01-25T09:38:37.070Z,100739.66
2018-01-25T09:41:05.683Z,100737.31
2018-01-25T09:43:34.132Z,100746.31
2018-01-25T09:46:02.774Z,100746.05
2018-01-25T09:48:31.468Z,100757.08
2018-01-25T09:50:59.888Z,100748.97
2018-01-25T09:53:28.305Z,100759.42
2018-01-25T09:55:56.761Z,100765.33
2018-01-25T09:58:25.170Z,100769.63
2018-01-25T10:00:53.698Z,100772.29
2018-01-25T10:03:22.206Z,100782.89
2018-01-25T10:05:50.637Z,100780.25
2018-01-25T10:08:19.556Z,100787.02
2018-01-25T10:10:48.176Z,100789.88
2018-01-25T10:13:16.801Z,100793.47
2018-01-25T10:15:45.229Z,100796.48
2018-01-25T10:18:14.009Z,100795.31
2018-01-25T10:20:42.649Z,100788.33
2018-01-25T10:23:11.076Z,100796.38
2018-01-25T10:25:39.548Z,100789.09
2018-01-25T10:28:09.292Z,100791.08
2018-01-25T10:30:37.715Z,100787.56
2018-01-25T10:33:06.181Z,100784.78
2018-01-25T10:35:34.599Z,100786.75
2018-01-25T10:38:03.014Z,100792.29
2018-01-25T10:40:31.720Z,100800.03
2018-01-25T10:43:00.177Z,100789.16
2018-01-25T10:45:28.602Z,100794.66
2018-01-25T10:47:57.663Z,100798.33
2018-01-25T10:50:26.122Z,100797.04
2018-01-25T10:52:54.535Z,100802.59
2018-01-25T10:55:22.995Z,100802.05
2018-01-25T10:57:51.606Z,100806.25
2018-01-25T11:00:20.190Z,100798.75
2018-01-25T11:02:48.706Z,100812.05
2018-01-25T11:05:17.306Z,100803.34
2018-01-25T11:07:45.865Z,100807.30
2018-01-25T11:10:14.548Z,100811.72
2018-01-25T11:12:43.037Z,100805.28
2018-01-25T11:15:12.025Z,100804.50
2018-01-25T11:17:40.506Z,100804.70
2018-01-25T11:20:08.981Z,100800.18
2018-01-25T11:22:37.393Z,100813.34
2018-01-25T11:25:05.838Z,100816.81
2018-01-25T11:27:34.255Z,100825.12
2018-01-25T11:30:02.671Z,100819.97
2018-01-25T11:32:31.381Z,100815.42
2018-01-25T11:35:01.395Z,100807.49
2018-01-25T11:37:29.879Z,100807.39
2018-01-25T11:39:58.389Z,100809.89
2018-01-25T11:42:27.842Z,100805.72
2018-01-25T11:44:56.386Z,100807.22
2018-01-25T11:47:24.892Z,100808.09
2018-01-25T11:49:53.360Z,100801.41
2018-01-25T11:52:21.856Z,100810.69
2018-01-25T11:54:50.377Z,100809.19
2018-01-25T11:57:18.859Z,100803.11
2018-01-25T11:59:47.545Z,100811.02
2018-01-25T12:02:16.224Z,100797.13
2018-01-25T12:04:44.700Z,100803.53
2018-01-25T12:07:13.246Z,100797.18
2018-01-25T12:09:42.312Z,100796.22
2018-01-25T12:12:11.704Z,100798.36
2018-01-25T12:14:40.123Z,100788.60
2018-01-25T12:17:08.604Z,100787.00
2018-01-25T12:19:37.157Z,100774.92
2018-01-25T12:22:05.701Z,100773.78
2018-01-25T12:24:34.178Z,100775.97
2018-01-25T12:27:02.605Z,100786.45
2018-01-25T12:29:31.041Z,100783.84
2018-01-25T12:32:00.367Z,100780.77
2018-01-25T12:34:28.826Z,100794.95
2018-01-25T12:36:57.271Z,100795.25
2018-01-25T12:39:25.745Z,100789.15
2018-01-25T12:41:54.169Z,100784.02
2018-01-25T12:44:22.643Z,100780.45
2018-01-25T12:46:51.289Z,100783.87
2018-01-25T12:49:19.778Z,100790.05
2018-01-25T12:51:48.205Z,100792.98
2018-01-25T12:54:16.773Z,100785.25
2018-01-25T12:56:45.288Z,100786.83
2018-01-25T12:59:13.744Z,100788.27
2018-01-25T13:01:42.623Z,100791.53
2018-01-25T13:04:11.618Z,100786.67
2018-01-25T13:06:41.243Z,100786.72
2018-01-25T13:09:10.504Z,100798.08
2018-01-25T13:11:39.024Z,100798.32
2018-01-25T13:14:07.476Z,100796.41
2018-01-25T13:16:35.964Z,100791.89
2018-01-25T13:19:04.473Z,100793.23
2018-01-25T13:21:32.925Z,100802.58
2018-01-25T13:24:02.173Z,100800.28
2018-01-25T13:26:30.679Z,100805.29
2018-01-25T13:28:59.097Z,100807.53
2018-01-25T13:31:27.979Z,100801.08
2018-01-25T13:33:56.500Z,100806.09
2018-01-25T13:36:24.977Z,100801.98
2018-01-25T13:38:53.908Z,100807.23
2018-01-25T13:41:22.350Z,100811.66
2018-01-25T13:43:50.913Z,100810.86
2018-01-25T13:46:19.475Z,100809.37
2018-01-25T13:48:47.942Z,100809.22
2018-01-25T13:51:16.533Z,100813.49
2018-01-25T13:53:45.897Z,100817.74
2018-01-25T13:56:14.506Z,100813.40
2018-01-25T13:58:43.120Z,100823.37
2018-01-25T14:01:12.618Z,100808.27
2018-01-25T14:03:41.896Z,100819.64
2018-01-25T14:06:10.398Z,100818.10
2018-01-25T14:08:39.614Z,100807.64
2018-01-25T14:11:08.101Z,100814.38
2018-01-25T14:13:36.641Z,100808.92
2018-01-25T14:16:05.163Z,100810.80
2018-01-25T14:18:33.623Z,100816.03
2018-01-25T14:21:02.075Z,100821.05
2018-01-25T14:23:31.380Z,100822.12
2018-01-25T14:25:59.823Z,100825.82
2018-01-25T14:28:28.265Z,100827.37
2018-01-25T14:30:57.331Z,100835.75
2018-01-25T14:33:25.798Z,100836.66
2018-01-25T14:35:54.285Z,100828.97
2018-01-25T14:38:23.069Z,100829.99
2018-01-25T14:40:51.521Z,100827.11
2018-01-25T14:43:20.053Z,100828.77
2018-01-25T14:45:48.659Z,100829.50
2018-01-25T14:48:17.180Z,100829.72
2018-01-25T14:50:45.758Z,100824.28
2018-01-25T14:53:14.785Z,100823.42
2018-01-25T14:55:43.321Z,100830.25
2018-01-25T14:58:12.099Z,100832.97
2018-01-25T15:00:41.204Z,100840.08
2018-01-25T15:03:09.626Z,100840.16
2018-01-25T15:05:38.068Z,100839.48
2018-01-25T15:08:06.516Z,100841.52
2018-01-25T15:10:34.940Z,100838.94
2018-01-25T15:13:03.626Z,100836.66
2018-01-25T15:15:32.073Z,100834.80
2018-01-25T15:18:00.500Z,100838.88
2018-01-25T15:20:29.025Z,100843.27
2018-01-25T15:22:57.491Z,100844.91
2018-01-25T15:25:31.573Z,100847.25
2018-01-25T15:28:00.041Z,100848.74
2018-01-25T15:30:28.496Z,100854.45
2018-01-25T15:32:56.922Z,100857.54
2018-01-25T15:35:25.395Z,100855.36
2018-01-25T15:37:53.825Z,100845.23
2018-01-25T15:40:22.253Z,100841.94
2018-01-25T15:42:50.749Z,100850.89
2018-01-25T15:45:19.326Z,100846.20
2018-01-25T15:47:47.891Z,100844.37
2018-01-25T15:50:16.485Z,100838.56
2018-01-25T15:52:45.072Z,100836.70
2018-01-25T15:55:13.599Z,100842.71
2018-01-25T15:57:42.187Z,100838.77
2018-01-25T16:00:10.697Z,100847.83
2018-01-25T16:02:39.192Z,100848.06
2018-01-25T16:05:07.649Z,100849.47
2018-01-25T16:07:36.080Z,100850.85
2018-01-25T16:10:04.532Z,100859.00
2018-01-25T16:12:33.089Z,100862.84
2018-01-25T16:15:03.006Z,100862.36
2018-01-25T16:17:31.478Z,100870.83
2018-01-25T16:19:59.969Z,100874.02
2018-01-25T16:22:28.409Z,100870.83
2018-01-25T16:24:56.823Z,100871.02
2018-01-25T16:27:25.301Z,100868.48
2018-01-25T16:29:53.733Z,100874.93
2018-01-25T16:32:22.190Z,100879.78
2018-01-25T16:34:50.777Z,100881.62
2018-01-25T16:37:19.248Z,100893.70
2018-01-25T16:39:47.886Z,100887.05
2018-01-25T16:42:19.939Z,100883.40
2018-01-25T16:44:52.333Z,100886.34
2018-01-25T16:47:22.358Z,100883.97
2018-01-25T16:49:50.823Z,100878.95
2018-01-25T16:52:19.301Z,100885.16
2018-01-25T16:54:51.961Z,100882.38
2018-01-25T16:57:25.809Z,100883.49
2018-01-25T16:59:54.304Z,100884.34
2018-01-25T17:02:22.794Z,100885.73
2018-01-25T17:04:51.499Z,100885.37
2018-01-25T17:07:21.323Z,100881.69
2018-01-25T17:09:50.904Z,100885.61
2018-01-25T17:12:19.424Z,100898.22
2018-01-25T17:14:47.990Z,100904.64
2018-01-25T17:17:16.448Z,100898.39
2018-01-25T17:19:46.657Z,100898.14
2018-01-25T17:22:17.364Z,100902.92
2018-01-25T17:24:54.388Z,100908.45
2018-01-25T17:27:24.365Z,100909.13
2018-01-25T17:29:53.393Z,100895.86
2018-01-25T17:32:21.869Z,100895.59
2018-01-25T17:34:50.872Z,100903.89
2018-01-25T17:37:19.844Z,100899.11
2018-01-25T17:39:48.453Z,100904.39
2018-01-25T17:42:17.053Z,100905.81
2018-01-25T17:44:46.642Z,100900.11
2018-01-25T17:47:15.529Z,100897.07
2018-01-25T17:49:45.095Z,100902.11
2018-01-25T17:52:13.748Z,100904.40
2018-01-25T17:54:42.600Z,100899.48
2018-01-25T17:57:13.806Z,100902.28
2018-01-25T17:59:42.294Z,100895.22
2018-01-25T18:02:10.799Z,100896.56
2018-01-25T18:04:41.020Z,100910.08
2018-01-25T18:07:09.719Z,100906.47
2018-01-25T18:09:38.602Z,100904.75
2018-01-25T18:12:07.179Z,100899.17
2018-01-25T18:14:35.654Z,100912.11
2018-01-25T18:17:05.773Z,100918.34
2018-01-25T18:19:35.208Z,100922.11
2018-01-25T18:22:04.462Z,100923.52
2018-01-25T18:24:33.779Z,100928.03
2018-01-25T18:27:03.052Z,100940.48
2018-01-25T18:29:31.493Z,100952.60
2018-01-25T18:31:59.901Z,100951.27
2018-01-25T18:34:28.934Z,100944.38
2018-01-25T18:36:57.387Z,100943.83
2018-01-25T18:39:25.988Z,100951.53
2018-01-25T18:41:54.465Z,100938.36
2018-01-25T18:44:22.911Z,100941.87
2018-01-25T18:46:51.428Z,100940.64
2018-01-25T18:49:19.961Z,100935.76
2018-01-25T18:51:48.510Z,100942.89
2018-01-25T18:54:17.032Z,100940.84
2018-01-25T18:56:45.527Z,100942.31
2018-01-25T18:59:22.686Z,100943.36
2018-01-25T19:01:53.483Z,100941.64
2018-01-25T19:04:21.925Z,100947.11
2018-01-25T19:06:50.410Z,100942.98
2018-01-25T19:09:19.021Z,100951.34
2018-01-25T19:11:47.497Z,100956.47
2018-01-25T19:14:15.994Z,100964.17
2018-01-25T19:16:44.698Z,100961.13
2018-01-25T19:19:13.181Z,100960.55
2018-01-25T19:21:41.687Z,100951.82
2018-01-25T19:24:10.655Z,100961.98
2018-01-25T19:26:39.279Z,100955.33
2018-01-25T19:29:07.721Z,100963.45
2018-01-25T19:31:36.848Z,100961.27
2018-01-25T19:34:05.291Z,100953.02
2018-01-25T19:36:33.736Z,100941.99
2018-01-25T19:39:02.460Z,100944.56
2018-01-25T19:41:31.785Z,100948.59
2018-01-25T19:44:00.377Z,100947.97
2018-01-25T19:46:29.564Z,100949.55
2018-01-25T19:48:59.885Z,100949.08
2018-01-25T19:51:28.331Z,100952.02
2018-01-25T19:53:56.815Z,100960.67
2018-01-25T19:56:25.247Z,100958.06
2018-01-25T19:58:53.669Z,100957.05
2018-01-25T20:01:22.136Z,100951.26
2018-01-25T20:03:50.601Z,100944.85
2018-01-25T20:06:19.261Z,100949.70
2018-01-25T20:08:48.444Z,100941.94
2018-01-25T20:11:17.234Z,100948.32
2018-01-25T20:13:45.764Z,100943.28
2018-01-25T20:16:14.444Z,100949.73
2018-01-25T20:18:43.239Z,100951.26
2018-01-25T20:21:11.820Z,100940.14
2018-01-25T20:23:41.003Z,100949.59
2018-01-25T20:26:09.442Z,100951.20
2018-01-25T20:28:37.877Z,100955.45
2018-01-25T20:31:06.373Z,100961.98
2018-01-25T20:33:34.815Z,100962.14
2018-01-25T20:36:03.283Z,100968.41
2018-01-25T20:38:32.391Z,100963.65
2018-01-25T20:41:00.812Z,100964.69
2018-01-25T20:43:29.256Z,100965.22
2018-01-25T20:45:58.548Z,100964.69
2018-01-25T20:48:27.019Z,100968.44
2018-01-25T20:50:55.457Z,100977.55
2018-01-25T20:53:24.694Z,100969.48
2018-01-25T20:55:53.245Z,100972.01
2018-01-25T20:58:21.703Z,100973.43
2018-01-25T21:00:51.092Z,100979.94
2018-01-25T21:03:19.531Z,100977.95
2018-01-25T21:05:48.039Z,100982.18
2018-01-25T21:08:17.188Z,100977.52
2018-01-25T21:10:45.927Z,100979.38
2018-01-25T21:13:14.762Z,100983.75
2018-01-25T21:15:43.831Z,100973.85
2018-01-25T21:18:12.751Z,100966.17
2018-01-25T21:20:41.408Z,100979.75
2018-01-25T21:23:10.608Z,100978.91
2018-01-25T21:25:39.085Z,100983.84
2018-01-25T21:28:08.472Z,100987.70
2018-01-25T21:30:36.948Z,100991.77
2018-01-25T21:33:05.375Z,101000.56
2018-01-25T21:35:34.771Z,100991.59
2018-01-25T21:38:03.334Z,100988.30
2018-01-25T21:40:31.840Z,100994.01
2018-01-25T21:43:00.267Z,100989.97
2018-01-25T21:45:29.302Z,100988.59
2018-01-25T21:47:57.802Z,100996.84
2018-01-25T21:50:26.246Z,100997.95
2018-01-25T21:52:54.747Z,100997.81
2018-01-25T21:55:23.295Z,100992.48
2018-01-25T21:57:51.781Z,100992.44
2018-01-25T22:00:20.886Z,100997.19
2018-01-25T22:02:49.397Z,100988.73
2018-01-25T22:05:18.328Z,100995.23
2018-01-25T22:07:46.972Z,100999.17
2018-01-25T22:10:15.500Z,100998.65
2018-01-25T22:12:43.979Z,100999.75
2018-01-25T22:15:12.510Z,101001.17
2018-01-25T22:17:40.942Z,101003.31
2018-01-25T22:20:09.374Z,101011.13
2018-01-25T22:22:38.660Z,101008.70
2018-01-25T22:25:07.079Z,101014.73
2018-01-25T22:27:35.518Z,101010.37
2018-01-25T22:30:04.343Z,101018.86
2018-01-25T22:32:32.803Z,101026.31
2018-01-25T22:35:01.238Z,101026.94
2018-01-25T22:37:29.704Z,101029.60
2018-01-25T22:39:58.140Z,101026.89
2018-01-25T22:42:26.561Z,101030.08
2018-01-25T22:44:55.044Z,101033.09
2018-01-25T22:47:23.480Z,101028.16
2018-01-25T22:49:51.951Z,101022.27
2018-01-25T22:52:20.607Z,101020.52
2018-01-25T22:54:49.115Z,101020.60
2018-01-25T22:57:17.569Z,101028.45
2018-01-25T22:59:46.997Z,101034.45
2018-01-25T23:02:15.662Z,101040.61
2018-01-25T23:04:44.333Z,101035.14
2018-01-25T23:07:13.090Z,101033.30
2018-01-25T23:09:41.590Z,101026.22
2018-01-25T23:12:10.742Z,101030.77
2018-01-25T23:14:39.223Z,101035.14
2018-01-25T23:17:07.659Z,101047.67
2018-01-25T23:19:36.378Z,101038.92
2018-01-25T23:22:04.947Z,101043.44
2018-01-25T23:24:33.423Z,101046.52
2018-01-25T23:27:01.951Z,101033.69
2018-01-25T23:29:30.496Z,101043.52
2018-01-25T23:31:58.907Z,101048.84
2018-01-25T23:34:27.352Z,101054.50
2018-01-25T23:36:55.862Z,101047.98
2018-01-25T23:39:24.327Z,101043.44
2018-01-25T23:41:52.768Z,101045.84
2018-01-25T23:44:22.432Z,101053.39
2018-01-25T23:46:51.009Z,101052.02
2018-01-25T23:49:19.503Z,101041.47
2018-01-25T23:51:48.088Z,101036.41
2018-01-25T23:54:16.569Z,101045.84
2018-01-25T23:56:45.132Z,101045.41
2018-01-25T23:59:14.305Z,101041.00
